Time;durP1;ratioP1;P1;durP2;ratioP2;P2;SDS_P1;SDS_P2;PMS_P1;PMS_P2;Temp;Humidity;BMP_temperature;BMP_pressure;BME280_temperature;BME280_humidity;BME280_pressure;Samples;Min_cycle;Max_cycle;Signal;HPM_P1;HPM_P2
2021/07/01 00:01:42;;;;;;;1.35;1.00;;;;;;;14.30;100.00;97282.59;5013702;28;20056;-80
2021/07/01 00:04:09;;;;;;;1.85;1.10;;;;;;;14.30;100.00;97286.13;5013100;28;20042;-80
2021/07/01 00:06:36;;;;;;;2.95;1.23;;;;;;;14.31;100.00;97281.50;5011465;28;20042;-79
2021/07/01 00:09:04;;;;;;;3.10;1.33;;;;;;;14.39;100.00;97280.56;5011023;28;20061;-80
2021/07/01 00:11:31;;;;;;;3.58;1.27;;;;;;;14.43;100.00;97291.56;5014127;28;20046;-79
2021/07/01 00:13:58;;;;;;;6.68;1.20;;;;;;;14.40;100.00;97286.81;5013910;28;20048;-80
2021/07/01 00:16:25;;;;;;;2.45;1.23;;;;;;;14.41;100.00;97286.44;5012867;28;20050;-80
2021/07/01 00:18:51;;;;;;;1.50;1.30;;;;;;;14.35;100.00;97282.38;5011432;28;20074;-80
2021/07/01 00:21:18;;;;;;;3.95;1.20;;;;;;;14.32;100.00;97280.38;4994934;28;20038;-80
2021/07/01 00:23:44;;;;;;;6.22;1.48;;;;;;;14.31;100.00;97287.75;5010825;28;20053;-80
2021/07/01 00:26:11;;;;;;;4.00;1.15;;;;;;;14.27;100.00;97286.03;5011772;28;20061;-80
2021/07/01 00:28:45;;;;;;;4.53;1.30;;;;;;;14.35;100.00;97287.81;5013403;28;20049;-80
2021/07/01 00:31:12;;;;;;;3.13;1.25;;;;;;;14.39;100.00;97288.72;5013784;28;20108;-80
2021/07/01 00:33:38;;;;;;;1.33;1.02;;;;;;;14.42;100.00;97290.75;5030238;28;20049;-81
2021/07/01 00:36:05;;;;;;;3.30;1.30;;;;;;;14.51;100.00;97290.59;5018089;28;20053;-80
2021/07/01 00:38:32;;;;;;;3.15;1.25;;;;;;;14.52;100.00;97284.81;5013899;28;20057;-80
2021/07/01 00:40:59;;;;;;;2.17;1.27;;;;;;;14.46;100.00;97280.75;5011160;28;20061;-79
2021/07/01 00:43:25;;;;;;;1.35;1.20;;;;;;;14.40;100.00;97282.13;5013856;28;20065;-80
2021/07/01 00:45:52;;;;;;;2.05;1.23;;;;;;;14.33;100.00;97280.00;5014684;28;20046;-80
2021/07/01 00:48:19;;;;;;;2.15;1.23;;;;;;;14.24;100.00;97281.28;5014410;28;20072;-81
2021/07/01 00:50:46;;;;;;;2.10;1.30;;;;;;;14.16;100.00;97296.63;5016810;28;20157;-81
2021/07/01 00:53:12;;;;;;;3.88;1.20;;;;;;;14.12;100.00;97293.00;5012345;28;20045;-80
2021/07/01 00:55:39;;;;;;;4.03;1.40;;;;;;;14.08;100.00;97288.59;4996373;28;20072;-80
2021/07/01 00:58:06;;;;;;;4.00;1.75;;;;;;;14.09;100.00;97287.47;5014214;28;20054;-81
2021/07/01 01:01:01;;;;;;;3.08;1.40;;;;;;;14.10;100.00;97291.75;5013866;28;20046;-80
2021/07/01 01:03:29;;;;;;;5.00;1.27;;;;;;;14.10;100.00;97289.84;5013317;28;20075;-81
2021/07/01 01:05:57;;;;;;;5.85;1.50;;;;;;;14.19;100.00;97293.22;5014032;28;20128;-80
2021/07/01 01:08:23;;;;;;;1.63;1.40;;;;;;;14.17;100.00;97292.75;5012048;28;20482;-80
2021/07/01 01:10:51;;;;;;;2.55;1.38;;;;;;;14.14;100.00;97281.78;5011136;28;20046;-80
2021/07/01 01:13:28;;;;;;;4.22;1.30;;;;;;;14.21;100.00;97281.97;5009839;28;20038;-79
2021/07/01 01:16:04;;;;;;;1.90;1.30;;;;;;;14.25;100.00;97280.91;5012188;28;20046;-80
2021/07/01 01:18:31;;;;;;;6.65;1.60;;;;;;;14.37;100.00;97282.03;5012418;28;20046;-79
2021/07/01 01:20:59;;;;;;;3.40;1.60;;;;;;;14.38;100.00;97278.16;5018933;28;20046;-80
2021/07/01 01:23:26;;;;;;;3.47;1.65;;;;;;;14.37;100.00;97293.75;5021787;28;20121;-80
2021/07/01 01:25:58;;;;;;;6.68;1.55;;;;;;;14.38;100.00;97283.63;5004463;28;20056;-80
2021/07/01 01:28:25;;;;;;;3.50;1.38;;;;;;;14.33;100.00;97274.56;5022471;28;20045;-80
2021/07/01 01:30:52;;;;;;;5.25;1.60;;;;;;;14.36;100.00;97283.97;5008853;28;20046;-80
2021/07/01 01:33:18;;;;;;;5.03;1.70;;;;;;;14.29;100.00;97270.13;4999401;28;20137;-79
2021/07/01 01:35:45;;;;;;;2.85;1.50;;;;;;;14.27;100.00;97280.59;4974233;28;20475;-79
2021/07/01 01:38:14;;;;;;;4.30;1.50;;;;;;;14.28;100.00;97282.94;4990233;28;20072;-80
2021/07/01 01:40:44;;;;;;;6.38;1.75;;;;;;;14.17;100.00;97275.63;4991914;28;20050;-80
2021/07/01 01:43:13;;;;;;;8.52;1.98;;;;;;;14.13;100.00;97275.53;4993058;28;20061;-79
2021/07/01 01:45:41;;;;;;;3.72;1.75;;;;;;;14.08;100.00;97285.88;4992991;28;20054;-80
2021/07/01 01:48:07;;;;;;;4.28;1.85;;;;;;;14.06;100.00;97282.72;4995691;28;20042;-80
2021/07/01 01:50:34;;;;;;;2.58;1.95;;;;;;;14.02;100.00;97271.72;4996364;28;20058;-81
2021/07/01 01:53:02;;;;;;;5.00;2.10;;;;;;;14.00;100.00;97274.00;5001870;28;20057;-79
2021/07/01 01:55:29;;;;;;;9.38;2.00;;;;;;;13.99;100.00;97266.19;5004509;28;20054;-80
2021/07/01 01:57:56;;;;;;;6.82;2.10;;;;;;;14.02;100.00;97268.19;5009349;28;20072;-79
2021/07/01 02:00:26;;;;;;;7.38;2.20;;;;;;;14.07;100.00;97278.84;5006670;28;20318;-79
2021/07/01 02:02:53;;;;;;;4.50;2.03;;;;;;;14.04;100.00;97272.16;5011486;28;20090;-79
2021/07/01 02:05:20;;;;;;;5.20;2.50;;;;;;;14.06;100.00;97277.25;5008964;28;20067;-79
2021/07/01 02:07:47;;;;;;;3.05;2.15;;;;;;;14.05;100.00;97281.13;5009162;28;20107;-79
2021/07/01 02:10:19;;;;;;;5.68;2.40;;;;;;;14.05;100.00;97281.13;4993216;28;20046;-79
2021/07/01 02:12:48;;;;;;;3.92;2.28;;;;;;;14.14;100.00;97289.94;4992290;28;20136;-79
2021/07/01 02:15:22;;;;;;;4.75;2.33;;;;;;;13.92;100.00;97241.47;5032982;22;20072;-80
2021/07/01 02:17:54;;;;;;;3.67;1.98;;;;;;;14.03;100.00;97254.25;5041277;28;20041;-81
2021/07/01 02:20:29;;;;;;;4.65;2.28;;;;;;;14.03;100.00;97245.28;5051532;28;20052;-82
2021/07/01 02:23:09;;;;;;;4.03;2.15;;;;;;;14.18;100.00;97269.03;5049932;28;20100;-80
2021/07/01 02:25:36;;;;;;;6.70;2.20;;;;;;;14.18;100.00;97260.88;5046267;28;20068;-81
2021/07/01 02:28:06;;;;;;;7.53;2.38;;;;;;;14.10;100.00;97248.19;5023261;28;20490;-82
2021/07/01 02:30:35;;;;;;;5.80;2.40;;;;;;;14.17;100.00;97273.69;5033948;28;20053;-82
2021/07/01 02:33:02;;;;;;;3.13;2.10;;;;;;;14.19;100.00;97267.91;5016281;28;20107;-81
2021/07/01 02:35:32;;;;;;;5.50;2.17;;;;;;;14.27;100.00;97262.31;5017367;28;20052;-81
2021/07/01 02:37:59;;;;;;;3.20;2.45;;;;;;;14.27;100.00;97262.31;5035615;28;20091;-82
2021/07/01 02:40:26;;;;;;;4.47;1.90;;;;;;;14.30;100.00;97258.09;5034970;28;20053;-81
2021/07/01 02:42:53;;;;;;;2.65;2.22;;;;;;;14.30;100.00;97264.34;5035439;28;20104;-81
2021/07/01 02:45:19;;;;;;;6.22;2.60;;;;;;;14.26;100.00;97255.28;5016784;28;20068;-81
2021/07/01 02:47:48;;;;;;;4.55;2.60;;;;;;;14.32;100.00;97256.63;5017740;28;20398;-82
2021/07/01 02:50:15;;;;;;;4.47;2.63;;;;;;;14.31;100.00;97255.06;5017717;28;20045;-83
2021/07/01 02:52:44;;;;;;;3.35;2.30;;;;;;;14.37;100.00;97247.44;5017520;28;20045;-82
2021/07/01 02:55:11;;;;;;;5.07;2.50;;;;;;;14.40;100.00;97248.69;5029536;28;20041;-78
2021/07/01 02:57:38;;;;;;;6.80;2.63;;;;;;;14.41;100.00;97259.22;5017462;28;20099;-82
2021/07/01 03:00:11;;;;;;;3.17;2.38;;;;;;;14.40;100.00;97249.44;5035808;28;20128;-82
2021/07/01 03:02:38;;;;;;;4.10;2.35;;;;;;;14.40;100.00;97241.28;5032943;28;20097;-82
2021/07/01 03:05:08;;;;;;;5.38;2.22;;;;;;;14.43;100.00;97261.59;5017526;28;20041;-81
2021/07/01 03:07:34;;;;;;;5.03;2.53;;;;;;;14.41;100.00;97250.25;5040262;28;20564;-81
2021/07/01 03:10:04;;;;;;;4.80;2.45;;;;;;;14.45;100.00;97251.16;5018861;28;20041;-80
2021/07/01 03:12:30;;;;;;;3.90;2.50;;;;;;;14.45;100.00;97260.13;5038115;28;20049;-80
2021/07/01 03:14:57;;;;;;;3.35;2.22;;;;;;;14.52;100.00;97254.84;5038727;28;20106;-80
2021/07/01 03:17:23;;;;;;;3.55;2.53;;;;;;;14.56;100.00;97252.19;5040975;28;20045;-78
2021/07/01 03:19:50;;;;;;;5.53;2.72;;;;;;;14.60;100.00;97253.88;5022596;28;20053;-80
2021/07/01 03:22:19;;;;;;;6.18;3.10;;;;;;;14.62;100.00;97248.09;5020771;28;20045;-80
2021/07/01 03:24:48;;;;;;;5.15;2.85;;;;;;;14.67;100.00;97251.34;5017043;28;20041;-80
2021/07/01 03:27:14;;;;;;;7.13;3.60;;;;;;;14.67;100.00;97256.00;5020885;28;20053;-80
2021/07/01 03:29:41;;;;;;;6.40;3.20;;;;;;;14.65;100.00;97245.47;5019603;28;20095;-81
2021/07/01 03:32:08;;;;;;;6.72;3.40;;;;;;;14.71;100.00;97259.63;5020651;28;20049;-79
2021/07/01 03:34:35;;;;;;;4.63;3.20;;;;;;;14.70;100.00;97247.13;5037419;28;20041;-78
2021/07/01 03:37:02;;;;;;;5.05;3.47;;;;;;;14.76;100.00;97251.19;5036645;28;20041;-81
2021/07/01 03:39:28;;;;;;;5.78;4.10;;;;;;;14.77;100.00;97245.38;5036974;28;20049;-81
2021/07/01 03:41:56;;;;;;;8.80;4.30;;;;;;;14.82;100.00;97245.09;5037422;28;20095;-81
2021/07/01 03:44:22;;;;;;;7.13;4.78;;;;;;;14.81;100.00;97237.28;5036109;28;20060;-80
2021/07/01 03:46:49;;;;;;;5.93;4.22;;;;;;;14.80;100.00;97241.16;5035495;28;20451;-82
2021/07/01 03:49:16;;;;;;;5.20;4.63;;;;;;;14.79;100.00;97234.91;5019102;28;20045;-81
2021/07/01 03:51:44;;;;;;;7.72;4.38;;;;;;;14.71;100.00;97226.91;5036391;28;20053;-81
2021/07/01 03:54:10;;;;;;;6.93;4.20;;;;;;;14.66;100.00;97238.84;5035637;28;20042;-81
2021/07/01 03:56:43;;;;;;;9.82;4.85;;;;;;;14.60;100.00;97243.00;5018832;28;20041;-82
2021/07/01 03:59:14;;;;;;;5.82;4.43;;;;;;;14.56;100.00;97242.09;5019822;28;20046;-81
2021/07/01 04:01:43;;;;;;;7.45;4.47;;;;;;;14.58;100.00;97244.50;5036037;28;20087;-80
2021/07/01 04:04:10;;;;;;;6.15;4.40;;;;;;;14.51;100.00;97236.91;5035038;28;20044;-80
2021/07/01 04:06:37;;;;;;;5.63;4.53;;;;;;;14.50;100.00;97234.53;5035937;28;20457;-81
2021/07/01 04:09:07;;;;;;;6.38;4.45;;;;;;;14.52;100.00;97243.94;5017922;28;20059;-80
2021/07/01 04:11:37;;;;;;;10.25;4.30;;;;;;;14.64;100.00;97260.22;5037341;28;20049;-81
2021/07/01 04:14:04;;;;;;;5.95;4.00;;;;;;;14.75;100.00;97260.50;5019670;28;20041;-81
2021/07/01 04:16:31;;;;;;;4.95;3.63;;;;;;;14.80;100.00;97239.22;5037294;28;20103;-81
2021/07/01 04:18:58;;;;;;;5.68;3.63;;;;;;;14.89;100.00;74797.06;5019832;28;20045;-82
2021/07/01 04:21:27;;;;;;;6.10;3.60;;;;;;;14.94;100.00;97241.50;5018802;28;20060;-81
2021/07/01 04:23:56;;;;;;;4.25;3.45;;;;;;;15.06;100.00;97251.50;5042074;28;20045;-81
2021/07/01 04:26:23;;;;;;;5.38;3.20;;;;;;;15.10;100.00;97249.69;5040452;28;20062;-82
2021/07/01 04:28:51;;;;;;;6.22;3.40;;;;;;;15.00;100.00;97242.81;5025881;28;20045;-83
2021/07/01 04:31:19;;;;;;;12.05;3.55;;;;;;;15.04;100.00;97249.16;5042487;28;20157;-80
2021/07/01 04:33:47;;;;;;;5.35;3.50;;;;;;;15.05;100.00;97239.81;5024096;28;20120;-82
2021/07/01 04:36:14;;;;;;;5.60;3.28;;;;;;;15.13;100.00;97249.75;5040816;28;20465;-82
2021/07/01 04:38:41;;;;;;;5.22;3.53;;;;;;;15.24;100.00;97244.56;5023004;28;20613;-81
2021/07/01 04:41:08;;;;;;;5.43;3.17;;;;;;;15.35;100.00;97253.78;5048256;28;20045;-81
2021/07/01 04:43:34;;;;;;;4.35;3.08;;;;;;;15.39;100.00;97252.72;5047609;28;20048;-82
2021/07/01 04:46:01;;;;;;;6.43;3.22;;;;;;;15.51;100.00;97255.34;5032705;28;20101;-79
2021/07/01 04:48:28;;;;;;;5.72;3.10;;;;;;;15.58;100.00;97254.72;5029556;28;20316;-79
2021/07/01 04:50:54;;;;;;;4.20;3.38;;;;;;;15.64;100.00;97261.47;5013249;28;20046;-80
2021/07/01 04:53:21;;;;;;;3.95;3.10;;;;;;;15.77;100.00;97257.47;5030831;28;20078;-81
2021/07/01 04:55:47;;;;;;;4.95;3.22;;;;;;;15.86;100.00;97249.09;5051797;28;20041;-79
2021/07/01 04:58:14;;;;;;;4.45;3.00;;;;;;;15.87;100.00;97250.66;5035702;28;20037;-80
2021/07/01 05:00:41;;;;;;;4.78;3.00;;;;;;;15.79;100.00;97255.19;5049288;28;20494;-82
2021/07/01 05:03:08;;;;;;;4.85;2.80;;;;;;;15.71;100.00;97247.19;5036572;28;20045;-81
2021/07/01 05:05:34;;;;;;;5.68;3.10;;;;;;;15.74;100.00;97252.75;5036135;28;20049;-81
2021/07/01 05:08:01;;;;;;;4.45;3.08;;;;;;;15.80;100.00;97245.03;5017039;28;20516;-82
2021/07/01 05:10:27;;;;;;;3.97;3.15;;;;;;;15.79;100.00;97254.41;5018588;28;20041;-82
2021/07/01 05:12:55;;;;;;;6.95;3.33;;;;;;;15.80;100.00;97253.22;5035585;28;20544;-81
2021/07/01 05:15:22;;;;;;;7.18;3.47;;;;;;;15.87;100.00;97256.13;5035689;28;20046;-81
2021/07/01 05:17:49;;;;;;;4.93;3.15;;;;;;;15.88;100.00;97253.03;5036518;28;20063;-80
2021/07/01 05:20:16;;;;;;;4.85;2.85;;;;;;;15.90;100.00;97261.66;5031191;28;20042;-81
2021/07/01 05:22:42;;;;;;;4.80;3.03;;;;;;;15.83;100.00;97249.78;5037754;28;20045;-79
2021/07/01 05:25:10;;;;;;;4.63;2.90;;;;;;;15.86;100.00;97254.53;5014814;28;20048;-78
2021/07/01 05:27:36;;;;;;;7.10;3.20;;;;;;;15.96;100.00;97260.22;5033217;28;20092;-81
2021/07/01 05:30:07;;;;;;;4.93;3.00;;;;;;;15.95;100.00;97264.09;5007642;28;20411;-79
2021/07/01 05:32:34;;;;;;;2.97;2.47;;;;;;;15.97;100.00;97259.09;5049979;28;20127;-79
2021/07/01 05:35:01;;;;;;;4.05;2.90;;;;;;;16.05;100.00;97249.09;5058165;28;20045;-81
2021/07/01 05:37:30;;;;;;;4.38;2.33;;;;;;;16.17;100.00;97262.59;5058241;28;20586;-82
2021/07/01 05:39:57;;;;;;;6.72;2.55;;;;;;;16.02;100.00;97261.53;5047010;28;20077;-80
2021/07/01 05:42:24;;;;;;;5.70;2.50;;;;;;;16.05;100.00;97260.78;5025167;28;20130;-81
2021/07/01 05:44:50;;;;;;;4.28;2.65;;;;;;;16.16;100.00;97269.19;5039085;28;20041;-80
2021/07/01 05:47:19;;;;;;;3.28;2.58;;;;;;;16.03;100.00;97274.00;5020893;28;20072;-82
2021/07/01 05:49:50;;;;;;;4.13;2.67;;;;;;;16.16;100.00;97289.13;5038554;28;20061;-81
2021/07/01 05:52:22;;;;;;;2.92;2.30;;;;;;;15.95;100.00;97280.47;4999974;28;20045;-82
2021/07/01 05:54:56;;;;;;;3.17;2.25;;;;;;;16.01;100.00;97289.97;5023288;28;20095;-79
2021/07/01 05:57:24;;;;;;;4.18;2.10;;;;;;;16.05;100.00;97292.78;5027948;28;20044;-81
2021/07/01 05:59:51;;;;;;;4.60;2.75;;;;;;;15.95;100.00;97288.66;5059156;28;20449;-79
2021/07/01 06:02:17;;;;;;;6.72;2.13;;;;;;;15.99;100.00;97295.00;5059141;28;20040;-81
2021/07/01 06:04:44;;;;;;;3.47;2.40;;;;;;;16.01;100.00;97291.91;5054401;28;20090;-80
2021/07/01 06:07:16;;;;;;;6.22;2.33;;;;;;;15.95;100.00;97294.13;5037605;28;20046;-81
2021/07/01 06:09:45;;;;;;;3.03;2.30;;;;;;;15.93;100.00;97293.69;5019165;28;20065;-80
2021/07/01 06:12:12;;;;;;;6.45;2.40;;;;;;;16.01;100.00;97302.81;5020836;28;20037;-82
2021/07/01 06:14:41;;;;;;;5.50;2.72;;;;;;;16.00;100.00;97298.53;5021500;28;20042;-80
2021/07/01 06:17:11;;;;;;;3.78;3.05;;;;;;;16.03;100.00;97304.06;5022554;28;20049;-81
2021/07/01 06:19:38;;;;;;;7.47;2.90;;;;;;;16.09;100.00;97307.28;5039878;28;20553;-82
2021/07/01 06:22:04;;;;;;;4.18;2.72;;;;;;;16.15;100.00;97306.66;5038839;28;20045;-80
2021/07/01 06:24:34;;;;;;;4.30;3.28;;;;;;;16.19;100.00;97306.72;5037989;28;20053;-82
2021/07/01 06:27:02;;;;;;;4.95;3.67;;;;;;;16.36;100.00;97308.25;5020988;28;20041;-81
2021/07/01 06:29:37;;;;;;;7.82;3.55;;;;;;;16.37;100.00;97301.63;5039858;28;20045;-80
2021/07/01 06:32:16;;;;;;;6.47;3.47;;;;;;;16.33;100.00;97276.97;5022713;28;20746;-81
2021/07/01 06:34:42;;;;;;;8.68;3.60;;;;;;;16.59;100.00;97299.00;5040011;28;20099;-80
2021/07/01 06:37:12;;;;;;;6.47;4.03;;;;;;;16.63;100.00;97310.75;5023178;28;20045;-80
2021/07/01 06:39:43;;;;;;;6.75;4.25;;;;;;;16.64;100.00;97303.38;5039209;28;20612;-80
2021/07/01 06:42:10;;;;;;;5.70;4.30;;;;;;;16.76;100.00;97323.13;5022151;28;20045;-80
2021/07/01 06:44:38;;;;;;;5.22;3.80;;;;;;;16.70;100.00;97316.34;5043032;28;20042;-81
2021/07/01 06:47:04;;;;;;;7.90;4.50;;;;;;;16.73;100.00;97312.91;5027771;28;20061;-81
2021/07/01 06:49:32;;;;;;;5.30;4.35;;;;;;;16.76;100.00;97316.84;5027737;28;20045;-79
2021/07/01 06:51:59;;;;;;;8.80;4.43;;;;;;;16.88;100.00;97326.84;5046687;28;20041;-81
2021/07/01 06:54:28;;;;;;;6.90;4.07;;;;;;;16.73;100.00;97323.03;5045753;28;20068;-82
2021/07/01 06:56:57;;;;;;;5.25;3.97;;;;;;;16.69;100.00;97333.94;5045462;28;20080;-80
2021/07/01 06:59:24;;;;;;;5.72;4.15;;;;;;;16.77;100.00;97330.19;5045558;28;20145;-80
2021/07/01 07:01:51;;;;;;;4.22;3.55;;;;;;;16.76;100.00;97325.06;5049451;28;20045;-79
2021/07/01 07:04:18;;;;;;;5.30;3.55;;;;;;;16.62;100.00;97327.53;5026352;28;20072;-80
2021/07/01 07:07:14;;;;;;;5.70;3.70;;;;;;;16.63;100.00;97329.91;5034971;28;20064;-79
2021/07/01 07:09:40;;;;;;;4.43;3.63;;;;;;;16.61;100.00;97328.69;5043659;28;20091;-81
2021/07/01 07:12:07;;;;;;;5.68;3.63;;;;;;;16.59;100.00;97337.25;5027367;28;20457;-81
2021/07/01 07:14:36;;;;;;;4.97;3.88;;;;;;;16.58;100.00;97332.13;5026406;28;20049;-82
2021/07/01 07:17:03;;;;;;;5.47;3.50;;;;;;;16.45;100.00;97345.13;5044283;28;20033;-80
2021/07/01 07:19:32;;;;;;;4.80;3.78;;;;;;;16.39;100.00;97326.66;5027430;28;20068;-80
2021/07/01 07:22:01;;;;;;;7.20;3.30;;;;;;;16.38;100.00;97330.53;5045644;28;20049;-79
2021/07/01 07:24:29;;;;;;;6.47;4.15;;;;;;;16.42;100.00;97331.38;5044164;28;20038;-80
2021/07/01 07:26:56;;;;;;;7.95;4.82;;;;;;;16.71;100.00;97337.09;5045045;28;20046;-81
2021/07/01 07:29:39;;;;;;;5.57;4.10;;;;;;;16.92;100.00;97333.97;5026772;28;20107;-81
2021/07/01 07:32:13;;;;;;;6.13;4.35;;;;;;;17.13;100.00;97333.53;5046160;28;20046;-81
2021/07/01 07:34:44;;;;;;;6.28;4.25;;;;;;;16.99;100.00;97328.59;5063212;28;20354;-81
2021/07/01 07:37:10;;;;;;;5.22;4.22;;;;;;;16.87;100.00;97330.72;5033750;28;20110;-79
2021/07/01 07:39:37;;;;;;;6.45;4.38;;;;;;;16.99;100.00;97328.59;5044680;28;20132;-80
2021/07/01 07:42:06;;;;;;;5.68;4.60;;;;;;;17.06;100.00;97339.66;5046145;28;20100;-79
2021/07/01 07:44:35;;;;;;;9.57;5.13;;;;;;;16.55;100.00;97351.97;5030576;28;20664;-82
2021/07/01 07:47:02;;;;;;;6.75;5.10;;;;;;;16.18;100.00;97352.34;5050676;28;20049;-83
2021/07/01 07:49:29;;;;;;;6.53;5.50;;;;;;;16.05;100.00;97361.81;5051118;28;20045;-81
2021/07/01 07:52:02;;;;;;;4.47;3.53;;;;;;;15.58;100.00;97375.59;5049880;28;20120;-83
2021/07/01 07:54:37;;;;;;;5.40;3.63;;;;;;;15.23;100.00;97382.03;5027860;28;20034;-84
2021/07/01 07:57:05;;;;;;;4.88;2.67;;;;;;;14.87;100.00;97389.28;5041577;28;20038;-82
2021/07/01 07:59:33;;;;;;;6.35;3.22;;;;;;;14.71;100.00;97398.59;5040300;28;20487;-82
2021/07/01 08:02:03;;;;;;;4.40;3.00;;;;;;;14.54;100.00;97396.94;5020391;28;20494;-81
2021/07/01 08:04:34;;;;;;;5.18;3.55;;;;;;;14.59;100.00;97401.34;5037170;28;20053;-81
2021/07/01 08:07:03;;;;;;;7.30;3.90;;;;;;;14.61;100.00;97408.03;5023306;28;20041;-81
2021/07/01 08:09:30;;;;;;;6.53;4.00;;;;;;;14.67;100.00;97405.84;5057564;28;20107;-82
2021/07/01 08:12:04;;;;;;;7.07;4.88;;;;;;;14.68;100.00;97402.78;5040556;28;20049;-83
2021/07/01 08:14:43;;;;;;;9.35;4.88;;;;;;;14.72;100.00;97402.88;5043567;23;20036;-80
2021/07/01 08:17:14;;;;;;;8.82;4.88;;;;;;;14.84;100.00;97406.34;4976411;28;20380;-79
2021/07/01 08:19:40;;;;;;;9.10;5.63;;;;;;;14.82;100.00;97399.66;4992061;28;20075;-79
2021/07/01 08:22:09;;;;;;;10.10;5.20;;;;;;;15.05;100.00;97408.84;4959425;28;20046;-79
2021/07/01 08:24:39;;;;;;;9.65;5.30;;;;;;;15.23;100.00;97401.13;4973067;28;20137;-80
2021/07/01 08:27:07;;;;;;;6.72;4.97;;;;;;;15.46;100.00;97391.22;4991304;28;20186;-79
2021/07/01 08:29:34;;;;;;;6.55;4.65;;;;;;;15.65;100.00;97399.50;4991608;28;20042;-79
2021/07/01 08:32:06;;;;;;;6.80;4.30;;;;;;;15.66;100.00;97389.38;4972185;28;20487;-78
2021/07/01 08:34:38;;;;;;;5.75;4.15;;;;;;;15.71;100.00;97387.19;4970954;28;20034;-80
2021/07/01 08:37:05;;;;;;;3.35;2.42;;;;;;;15.56;100.00;97388.00;4989164;28;20053;-79
2021/07/01 08:39:33;;;;;;;4.00;3.00;;;;;;;15.63;100.00;97382.69;4987621;28;20065;-79
2021/07/01 08:42:03;;;;;;;3.42;2.80;;;;;;;15.95;100.00;97386.19;4977871;28;20523;-80
2021/07/01 08:44:55;;;;;;;6.50;2.80;;;;;;;15.84;100.00;97387.88;4969775;28;20042;-78
2021/07/01 08:47:28;;;;;;;3.58;2.78;;;;;;;15.93;100.00;97400.19;4987404;28;20050;-80
2021/07/01 08:49:57;;;;;;;5.22;3.00;;;;;;;16.14;100.00;97386.22;4988440;28;20184;-80
2021/07/01 08:52:34;;;;;;;3.72;2.80;;;;;;;16.13;100.00;97393.59;4987543;28;20122;-81
2021/07/01 08:55:24;;;;;;;4.82;3.03;;;;;;;16.00;100.00;97388.63;4957016;28;20045;-80
2021/07/01 08:57:54;;;;;;;4.40;3.22;;;;;;;16.05;100.00;97394.59;4988235;28;20046;-79
2021/07/01 09:00:21;;;;;;;6.07;3.40;;;;;;;15.95;100.00;97384.22;4988102;28;20137;-81
2021/07/01 09:03:06;;;;;;;4.55;3.28;;;;;;;16.26;100.00;97396.25;4967613;28;20069;-80
2021/07/01 09:05:36;;;;;;;3.40;2.65;;;;;;;16.46;100.00;97389.63;4988441;28;20070;-79
2021/07/01 09:08:09;;;;;;;2.92;2.38;;;;;;;16.58;100.00;97379.38;4970177;28;20050;-79
2021/07/01 09:10:40;;;;;;;3.75;2.38;;;;;;;16.79;100.00;97374.34;4986867;28;20571;-80
2021/07/01 09:13:10;;;;;;;2.65;2.13;;;;;;;16.83;100.00;97380.66;4950579;28;20101;-80
2021/07/01 09:15:37;;;;;;;2.88;2.33;;;;;;;16.95;100.00;97377.00;4950158;28;20101;-81
2021/07/01 09:18:09;;;;;;;3.20;2.17;;;;;;;17.56;100.00;97381.59;4981064;28;20113;-80
2021/07/01 09:20:37;;;;;;;2.97;2.05;;;;;;;17.98;100.00;97379.53;4971497;28;20058;-79
2021/07/01 09:23:10;;;;;;;3.47;2.00;;;;;;;18.33;100.00;97377.28;4965012;28;20042;-81
2021/07/01 09:25:40;;;;;;;5.63;2.30;;;;;;;18.30;100.00;97371.78;4971722;28;20475;-81
2021/07/01 09:28:06;;;;;;;2.28;1.80;;;;;;;18.09;100.00;97361.31;4971135;28;20054;-82
2021/07/01 09:30:34;;;;;;;2.10;1.63;;;;;;;17.85;100.00;97378.16;4991430;28;20480;-80
2021/07/01 09:33:03;;;;;;;2.75;1.67;;;;;;;17.53;100.00;97393.25;4992860;28;20227;-80
2021/07/01 09:35:34;;;;;;;3.67;1.55;;;;;;;17.23;100.00;97384.91;4975230;28;20046;-81
2021/07/01 09:38:11;;;;;;;2.58;1.90;;;;;;;17.13;100.00;97386.31;4990503;28;20141;-80
2021/07/01 09:40:38;;;;;;;2.67;1.80;;;;;;;17.04;100.00;97390.41;4988699;28;20133;-80
2021/07/01 09:43:07;;;;;;;3.53;1.90;;;;;;;17.19;100.00;97395.00;4975088;28;20057;-79
2021/07/01 09:45:36;;;;;;;4.97;2.30;;;;;;;17.11;100.00;97388.59;4960698;28;20046;-81
2021/07/01 09:48:10;;;;;;;3.08;1.88;;;;;;;17.01;100.00;97396.63;4993268;28;20378;-81
2021/07/01 09:50:48;;;;;;;2.88;2.22;;;;;;;16.99;100.00;97387.97;4998401;28;20081;-83
2021/07/01 09:53:33;;;;;;;4.15;2.60;;;;;;;16.81;100.00;97387.63;4975606;28;20094;-81
2021/07/01 09:56:04;;;;;;;3.72;2.47;;;;;;;16.81;100.00;97390.38;4968659;28;20285;-82
2021/07/01 09:58:31;;;;;;;8.00;2.50;;;;;;;16.97;100.00;97395.75;4969218;28;20054;-82
2021/07/01 10:00:59;;;;;;;3.85;2.55;;;;;;;16.87;100.00;97382.69;4973636;28;20055;-81
2021/07/01 10:03:25;;;;;;;5.63;2.75;;;;;;;16.87;100.00;97383.47;4970752;28;20077;-81
2021/07/01 10:05:52;;;;;;;6.28;2.40;;;;;;;16.81;100.00;97390.38;4989088;28;20046;-82
2021/07/01 10:08:19;;;;;;;4.78;2.20;;;;;;;16.71;100.00;97388.22;4971324;28;20137;-83
2021/07/01 10:10:48;;;;;;;2.42;2.00;;;;;;;16.79;100.00;97382.53;4954053;28;20081;-83
2021/07/01 10:13:20;;;;;;;2.70;2.08;;;;;;;17.15;100.00;97383.19;4969866;28;20042;-83
2021/07/01 10:15:50;;;;;;;5.18;2.00;;;;;;;17.27;100.00;97385.75;4982523;28;20113;-82
2021/07/01 10:18:22;;;;;;;3.03;2.33;;;;;;;17.47;100.00;97379.09;4991371;28;20062;-85
2021/07/01 10:20:57;;;;;;;3.88;2.08;;;;;;;17.48;100.00;97379.84;4972654;28;20046;-82
2021/07/01 10:23:36;;;;;;;5.30;2.10;;;;;;;17.30;100.00;97380.34;4968806;28;20090;-83
2021/07/01 10:26:12;;;;;;;4.38;2.40;;;;;;;17.17;100.00;97370.75;4968181;28;20430;-81
2021/07/01 10:28:40;;;;;;;4.88;1.90;;;;;;;16.99;100.00;97391.50;4986054;28;20047;-81
2021/07/01 10:31:14;;;;;;;3.00;1.73;;;;;;;17.14;100.00;97385.13;4969630;28;20077;-83
2021/07/01 10:33:43;;;;;;;2.72;2.03;;;;;;;17.52;100.00;97377.97;4965232;28;20098;-83
2021/07/01 10:36:20;;;;;;;4.45;1.73;;;;;;;17.89;100.00;97377.03;4966811;28;20721;-82
2021/07/01 10:38:49;;;;;;;4.68;1.50;;;;;;;18.65;100.00;97372.25;4986171;28;20188;-82
2021/07/01 10:41:31;;;;;;;4.35;1.98;;;;;;;19.53;100.00;97364.94;4963929;28;20504;-82
2021/07/01 10:44:00;;;;;;;6.38;2.00;;;;;;;19.84;100.00;97369.91;4955781;28;20046;-82
2021/07/01 10:46:44;;;;;;;4.63;1.70;;;;;;;19.53;100.00;97364.16;4959472;28;20082;-82
2021/07/01 10:49:11;;;;;;;3.45;1.98;;;;;;;18.97;100.00;97364.38;4965849;28;20591;-82
2021/07/01 10:51:57;;;;;;;2.65;1.73;;;;;;;18.46;100.00;97351.22;4969356;28;20391;-81
2021/07/01 10:54:27;;;;;;;2.80;1.90;;;;;;;18.62;100.00;97365.56;4949528;28;20042;-81
2021/07/01 10:57:06;;;;;;;2.20;1.83;;;;;;;18.64;100.00;97359.69;4968344;28;20213;-83
2021/07/01 10:59:46;;;;;;;4.35;1.95;;;;;;;19.35;100.00;97363.97;4950272;28;20675;-85
2021/07/01 11:02:21;;;;;;;3.78;1.67;;;;;;;20.14;100.00;97355.97;4973362;28;20054;-80
2021/07/01 11:04:50;;;;;;;2.22;1.70;;;;;;;19.89;100.00;97361.31;4970337;28;20208;-83
2021/07/01 11:07:18;;;;;;;2.55;1.63;;;;;;;20.22;100.00;97349.34;4983260;28;20140;-84
2021/07/01 11:09:47;;;;;;;3.78;2.13;;;;;;;19.63;100.00;97361.50;4980139;28;20050;-83
2021/07/01 11:12:20;;;;;;;3.03;2.22;;;;;;;19.24;100.00;97357.59;4967743;28;20062;-81
2021/07/01 11:14:49;;;;;;;2.78;1.95;;;;;;;19.02;100.00;97364.03;4966635;28;20050;-81
2021/07/01 11:17:35;;;;;;;3.33;1.98;;;;;;;19.28;100.00;97355.66;4995208;28;20108;-82
2021/07/01 11:20:16;;;;;;;5.28;1.80;;;;;;;19.34;100.00;97358.84;4988231;28;20454;-81
2021/07/01 11:22:49;;;;;;;2.33;1.85;;;;;;;20.15;100.00;97362.25;4976466;28;20078;-81
2021/07/01 11:25:24;;;;;;;3.72;1.70;;;;;;;20.97;100.00;97359.50;4966886;28;20112;-81
2021/07/01 11:27:52;;;;;;;3.47;1.50;;;;;;;20.98;100.00;97361.06;4969800;28;20070;-81
2021/07/01 11:30:26;;;;;;;4.65;1.70;;;;;;;20.76;100.00;97364.13;4992083;28;20151;-83
2021/07/01 11:33:13;;;;;;;2.28;1.88;;;;;;;20.14;100.00;97363.41;4957751;28;20106;-81
2021/07/01 11:35:40;;;;;;;3.75;2.05;;;;;;;19.22;100.00;97357.97;4974436;28;20050;-81